createdAt,value
2022-10-01T00:16:20.175Z,194
2022-10-01T00:36:20.641Z,194
2022-10-01T00:56:20.142Z,192
2022-10-01T01:16:20.495Z,196
2022-10-01T01:36:20.440Z,198
2022-10-01T01:56:20.647Z,199
2022-10-01T02:16:20.718Z,201
2022-10-01T02:36:20.668Z,199
2022-10-01T02:56:20.653Z,195
2022-10-01T03:16:20.811Z,203
2022-10-01T03:36:20.454Z,203
2022-10-01T03:56:20.661Z,201
2022-10-01T04:16:20.727Z,208
2022-10-01T04:36:20.666Z,218
2022-10-01T04:56:20.680Z,218
2022-10-01T05:16:20.779Z,224
2022-10-01T05:36:20.697Z,232
2022-10-01T05:56:20.702Z,243
2022-10-01T06:16:20.515Z,243
2022-10-01T06:36:20.688Z,262
2022-10-01T06:56:20.530Z,277
2022-10-01T07:16:20.760Z,270
2022-10-01T07:36:20.703Z,259
2022-10-01T07:56:20.732Z,264
2022-10-01T08:16:20.281Z,267
2022-10-01T08:36:20.818Z,272
2022-10-01T08:56:20.812Z,270
2022-10-01T09:16:20.286Z,273
2022-10-01T09:36:20.737Z,280
2022-10-01T09:56:20.709Z,273
2022-10-01T10:16:20.802Z,282
2022-10-01T10:36:20.501Z,277
2022-10-01T10:56:20.697Z,276
2022-10-01T11:16:20.552Z,281
2022-10-01T11:36:20.702Z,284
2022-10-01T11:56:20.693Z,290
2022-10-01T12:16:20.739Z,295
2022-10-01T12:36:20.683Z,299
2022-10-01T13:16:20.748Z,299
2022-10-01T13:36:20.665Z,285
2022-10-01T13:56:20.667Z,283
2022-10-01T14:16:20.733Z,281
2022-10-01T14:56:20.634Z,252
2022-10-01T15:16:20.664Z,244
2022-10-01T15:36:20.623Z,235
2022-10-01T15:56:20.617Z,233
2022-10-01T16:16:20.719Z,246
2022-10-01T16:36:20.618Z,249
2022-10-01T16:56:23.630Z,255
2022-10-01T17:16:24.474Z,260
2022-10-01T17:36:20.593Z,263
2022-10-01T17:56:20.592Z,266
2022-10-01T18:16:20.627Z,263
2022-10-01T18:36:20.590Z,266
2022-10-01T18:56:20.696Z,265
2022-10-01T19:16:20.706Z,265
2022-10-01T19:36:20.600Z,266
2022-10-01T19:56:20.570Z,260
2022-10-01T20:16:20.724Z,261
2022-10-01T20:36:20.612Z,264
2022-10-01T20:56:20.598Z,258
2022-10-01T21:16:20.605Z,263
2022-10-01T21:36:20.603Z,261
2022-10-01T21:56:20.600Z,259
2022-10-01T22:16:20.650Z,260
2022-10-01T22:36:20.603Z,259
2022-10-01T22:56:20.604Z,256
2022-10-01T23:16:20.639Z,263
2022-10-01T23:36:20.617Z,265
2022-10-01T23:56:20.640Z,254
